Time;durP1;ratioP1;P1;durP2;ratioP2;P2;SDS_P1;SDS_P2;PMS_P1;PMS_P2;Temp;Humidity;BMP_temperature;BMP_pressure;BME280_temperature;BME280_humidity;BME280_pressure;Samples;Min_cycle;Max_cycle;Signal;HPM_P1;HPM_P2
2022/08/22 00:01:55;;;;;;;7.35;5.15;;;;;;;13.53;81.18;98581.63;4217048;27;20411;-70
2022/08/22 00:04:30;;;;;;;8.20;5.88;;;;;;;13.47;81.77;98586.75;4239589;27;20143;-70
2022/08/22 00:06:56;;;;;;;6.93;5.82;;;;;;;13.40;82.09;98581.19;4238279;27;20047;-70
2022/08/22 00:09:42;;;;;;;6.55;5.63;;;;;;;13.36;81.78;98583.19;4237944;27;20050;-70
2022/08/22 00:11:58;;;;;;;6.28;5.57;;;;;;;13.39;81.70;98590.72;4238919;27;20153;-70
2022/08/22 00:14:09;;;;;;;6.88;5.88;;;;;;;13.44;80.66;98589.56;4238667;27;20514;-70
2022/08/22 00:16:24;;;;;;;10.02;6.53;;;;;;;13.47;80.92;98591.53;4239354;27;20046;-70
2022/08/22 00:19:00;;;;;;;7.95;6.30;;;;;;;13.54;80.60;98588.75;4238874;27;20051;-70
2022/08/22 00:21:28;;;;;;;10.32;6.40;;;;;;;13.65;79.30;98594.34;4193896;27;20055;-70
2022/08/22 00:23:39;;;;;;;8.48;6.43;;;;;;;13.66;78.42;98593.97;4239733;27;20058;-70
2022/08/22 00:25:55;;;;;;;9.13;6.03;;;;;;;13.44;79.14;98595.91;4239615;27;20107;-70
2022/08/22 00:28:06;;;;;;;8.23;5.65;;;;;;;13.37;79.32;98595.09;4239013;27;20047;-70
2022/08/22 00:30:09;;;;;;;8.23;6.57;;;;;;;13.36;79.35;98587.94;4237484;27;20042;-70
2022/08/22 00:32:25;;;;;;;9.35;6.40;;;;;;;13.16;80.85;98596.63;4238600;27;20050;-70
2022/08/22 00:34:41;;;;;;;7.35;6.63;;;;;;;12.93;81.43;98596.91;4238477;27;20053;-70
2022/08/22 00:36:51;;;;;;;7.28;6.57;;;;;;;12.81;81.49;98590.91;4238998;27;20187;-70
2022/08/22 00:39:05;;;;;;;8.10;6.65;;;;;;;12.69;82.07;98600.38;4238070;27;20054;-70
2022/08/22 00:41:42;;;;;;;6.97;6.28;;;;;;;12.63;82.38;98607.47;4239032;27;20081;-70
2022/08/22 00:44:08;;;;;;;8.60;6.07;;;;;;;12.54;82.60;98590.38;4238565;27;20395;-70
2022/08/22 00:46:21;;;;;;;8.38;6.15;;;;;;;12.46;82.61;98592.31;4189681;27;20051;-70
2022/08/22 00:48:50;;;;;;;6.93;6.00;;;;;;;12.42;83.74;98593.50;4238506;27;20046;-70
2022/08/22 00:51:14;;;;;;;6.57;5.35;;;;;;;12.42;82.79;98588.75;4206626;27;20047;-70
2022/08/22 00:53:45;;;;;;;9.20;6.45;;;;;;;12.45;82.20;98590.72;4238568;27;20836;-70
2022/08/22 00:56:10;;;;;;;7.85;6.07;;;;;;;12.46;82.32;98585.97;4238306;27;20053;-70
2022/08/22 00:58:28;;;;;;;6.43;5.60;;;;;;;12.45;82.63;98587.16;4238581;27;20051;-70
2022/08/22 01:00:33;;;;;;;7.88;6.10;;;;;;;12.41;82.75;98586.34;4238603;27;20119;-70
2022/08/22 01:02:40;;;;;;;7.32;5.50;;;;;;;12.37;82.80;98581.56;4237088;27;20055;-70
2022/08/22 01:04:43;;;;;;;7.45;5.70;;;;;;;12.27;83.27;98587.84;4237622;27;20043;-70
2022/08/22 01:07:05;;;;;;;8.73;6.28;;;;;;;12.20;84.21;98582.25;4237174;27;20047;-70
2022/08/22 01:09:30;;;;;;;6.85;6.07;;;;;;;12.12;84.36;98585.38;4237324;27;20051;-70
2022/08/22 01:12:12;;;;;;;6.43;5.70;;;;;;;11.98;86.02;98586.84;4238853;27;20402;-70
2022/08/22 01:14:31;;;;;;;7.97;6.65;;;;;;;11.94;86.77;98586.03;4237612;27;20130;-70
2022/08/22 01:17:05;;;;;;;9.02;6.30;;;;;;;11.88;87.83;98581.22;4238481;27;20081;-70
2022/08/22 01:19:24;;;;;;;8.73;6.00;;;;;;;11.86;87.38;98597.47;4237051;27;20039;-70
2022/08/22 01:21:31;;;;;;;9.32;5.95;;;;;;;11.88;85.90;98587.56;4238688;27;20070;-70
2022/08/22 01:23:43;;;;;;;6.75;5.85;;;;;;;11.89;85.22;98588.38;4238255;27;20075;-70
2022/08/22 01:26:13;;;;;;;6.95;6.15;;;;;;;11.84;86.16;98591.50;4238123;27;20460;-70
2022/08/22 01:28:52;;;;;;;8.27;6.63;;;;;;;11.77;86.34;98584.69;4238278;27;20050;-70
2022/08/22 01:31:41;;;;;;;7.78;6.20;;;;;;;11.71;87.03;98588.19;4168078;28;20041;-70
2022/08/22 01:33:41;;;;;;;6.78;5.57;;;;;;;11.66;86.97;98591.28;4200833;27;20048;-70
2022/08/22 01:35:50;;;;;;;13.57;7.18;;;;;;;11.60;87.07;98590.06;4238198;27;20054;-70
2022/08/22 01:38:03;;;;;;;7.80;6.65;;;;;;;11.59;86.96;98591.25;4237939;27;20058;-70
2022/08/22 01:40:25;;;;;;;6.63;5.93;;;;;;;11.52;87.58;98584.47;4237169;27;20391;-70
2022/08/22 01:42:56;;;;;;;9.77;7.35;;;;;;;11.45;88.84;98583.59;4237346;27;20039;-70
2022/08/22 01:45:20;;;;;;;8.38;6.70;;;;;;;11.44;89.88;98585.56;4237530;27;20079;-70
2022/08/22 01:47:35;;;;;;;7.38;6.57;;;;;;;11.49;90.05;98582.44;4237873;27;20088;-70
2022/08/22 01:49:43;;;;;;;10.32;6.25;;;;;;;11.56;89.36;98587.25;4237479;27;20092;-70
2022/08/22 01:52:33;;;;;;;9.02;6.45;;;;;;;11.62;87.43;98591.28;4238331;27;20432;-70
2022/08/22 01:54:53;;;;;;;6.18;5.57;;;;;;;11.61;87.54;98588.91;4212887;27;20066;-70
2022/08/22 01:57:01;;;;;;;9.43;5.97;;;;;;;11.56;87.14;98581.72;4237516;27;20067;-70
2022/08/22 01:59:08;;;;;;;8.18;5.95;;;;;;;11.61;86.06;98580.59;4236671;27;20096;-70
2022/08/22 02:01:34;;;;;;;6.60;5.90;;;;;;;11.67;85.28;98579.84;4238112;27;20066;-70
2022/08/22 02:03:54;;;;;;;6.15;5.55;;;;;;;11.82;84.10;98589.88;4237449;27;20457;-70
2022/08/22 02:06:03;;;;;;;8.40;6.15;;;;;;;11.97;84.35;98582.47;4237798;27;20088;-70
2022/08/22 02:08:48;;;;;;;7.65;6.25;;;;;;;11.90;84.51;98585.19;4236655;27;20035;-70
2022/08/22 02:11:03;;;;;;;8.02;6.10;;;;;;;11.77;85.08;98587.47;4167896;28;20268;-70
2022/08/22 02:13:18;;;;;;;9.65;6.25;;;;;;;11.61;86.24;98584.16;4166151;28;20254;-70
2022/08/22 02:15:37;;;;;;;7.72;6.32;;;;;;;11.47;87.78;98584.00;4182943;27;20449;-70
2022/08/22 02:18:01;;;;;;;9.10;6.90;;;;;;;11.43;88.50;98584.00;4237258;27;20043;-70
2022/08/22 02:20:19;;;;;;;9.23;6.63;;;;;;;11.43;87.06;98584.00;4235651;27;20053;-70
2022/08/22 02:22:29;;;;;;;9.18;6.93;;;;;;;11.48;87.00;98575.31;4236208;27;20108;-70
2022/08/22 02:24:33;;;;;;;9.13;7.03;;;;;;;11.44;87.48;98570.94;4236958;27;20595;-70
2022/08/22 02:26:44;;;;;;;10.80;6.50;;;;;;;11.39;87.51;98568.50;4237779;27;20035;-70
2022/08/22 02:29:05;;;;;;;11.07;6.70;;;;;;;11.32;87.31;98583.06;4236270;27;20324;-70
2022/08/22 02:31:13;;;;;;;7.70;6.90;;;;;;;11.27;87.23;98579.88;4237400;27;20051;-70
2022/08/22 02:33:29;;;;;;;14.25;6.57;;;;;;;11.14;87.89;98579.31;4236917;27;20063;-70
2022/08/22 02:35:49;;;;;;;17.20;7.88;;;;;;;10.92;90.99;98578.28;4235926;27;20376;-70
2022/08/22 02:38:12;;;;;;;7.97;6.20;;;;;;;10.85;91.57;98589.28;4236501;27;20051;-70
2022/08/22 02:40:26;;;;;;;9.32;6.95;;;;;;;10.78;91.75;98581.69;4236092;27;20050;-70
2022/08/22 02:42:42;;;;;;;9.55;7.07;;;;;;;10.77;92.05;98580.09;4237145;27;20531;-70
2022/08/22 02:45:10;;;;;;;10.60;7.63;;;;;;;10.77;92.19;98587.59;4236355;27;20101;-70
2022/08/22 02:47:26;;;;;;;9.20;7.20;;;;;;;10.74;93.22;98591.09;4236860;27;20345;-70
2022/08/22 02:49:52;;;;;;;11.00;7.03;;;;;;;10.72;93.75;98585.16;4236533;27;20053;-70
2022/08/22 02:52:15;;;;;;;8.50;6.78;;;;;;;10.73;95.00;98589.50;4236840;27;20134;-70
2022/08/22 02:54:46;;;;;;;8.60;6.90;;;;;;;10.66;95.37;98588.25;4236015;27;20051;-70
2022/08/22 02:56:55;;;;;;;8.45;6.50;;;;;;;10.66;94.97;98588.25;4237124;27;20051;-70
2022/08/22 02:59:17;;;;;;;12.00;6.82;;;;;;;10.73;92.39;98579.25;4236307;27;20392;-70
2022/08/22 03:01:28;;;;;;;11.35;6.80;;;;;;;10.77;92.01;98587.59;4224402;27;20043;-70
2022/08/22 03:03:36;;;;;;;10.82;6.35;;;;;;;10.68;92.84;98588.69;4236192;27;20073;-70
2022/08/22 03:05:36;;;;;;;11.73;6.57;;;;;;;10.64;93.55;98585.06;4237096;27;20050;-70
2022/08/22 03:07:42;;;;;;;7.18;6.22;;;;;;;10.66;91.63;98588.25;4236418;27;20044;-70
2022/08/22 03:10:09;;;;;;;7.50;6.10;;;;;;;10.63;92.35;98585.44;4236441;27;20442;-70
2022/08/22 03:12:23;;;;;;;9.80;5.97;;;;;;;10.58;92.75;98583.00;4234967;27;20035;-70
2022/08/22 03:14:27;;;;;;;9.68;6.78;;;;;;;10.58;93.55;98583.00;4236367;27;20039;-70
2022/08/22 03:16:35;;;;;;;12.00;6.90;;;;;;;10.55;94.29;98587.31;4237041;27;20031;-70
2022/08/22 03:18:58;;;;;;;8.88;6.45;;;;;;;10.51;94.58;98585.66;4235752;27;20131;-70
2022/08/22 03:21:08;;;;;;;8.88;7.13;;;;;;;10.39;95.20;98581.16;4236545;27;20051;-70
2022/08/22 03:23:29;;;;;;;8.00;6.40;;;;;;;10.34;95.27;98587.84;4236409;27;20111;-70
2022/08/22 03:25:40;;;;;;;13.15;7.05;;;;;;;10.25;95.15;98580.97;4236459;27;20110;-70
2022/08/22 03:27:49;;;;;;;16.75;8.10;;;;;;;10.18;95.47;98581.66;4217793;28;20044;-70
2022/08/22 03:29:56;;;;;;;9.68;6.13;;;;;;;10.10;95.25;98582.72;4235582;27;20489;-70
2022/08/22 03:32:19;;;;;;;9.05;7.07;;;;;;;10.09;95.59;98583.84;4236192;27;20043;-70
2022/08/22 03:34:23;;;;;;;18.40;7.47;;;;;;;10.09;94.68;98579.16;4234693;27;20047;-69
2022/08/22 03:36:27;;;;;;;14.80;6.63;;;;;;;10.07;93.25;98580.69;4231884;27;20047;-70
2022/08/22 03:38:30;;;;;;;8.88;6.90;;;;;;;10.06;93.18;98579.88;4231496;28;20043;-70
2022/08/22 03:40:45;;;;;;;8.52;6.63;;;;;;;9.99;94.17;98571.47;4234486;28;20039;-70
2022/08/22 03:42:45;;;;;;;8.13;6.38;;;;;;;9.98;94.29;98577.38;4235942;28;20035;-70
2022/08/22 03:45:07;;;;;;;7.88;6.40;;;;;;;9.95;95.03;98578.13;4236406;28;20054;-70
2022/08/22 03:47:13;;;;;;;9.65;6.28;;;;;;;9.93;93.60;98584.03;4236167;28;20065;-70
2022/08/22 03:49:51;;;;;;;7.82;6.45;;;;;;;9.86;93.32;98586.69;4235481;28;20043;-69
2022/08/22 03:51:55;;;;;;;9.32;6.78;;;;;;;9.82;93.17;98585.81;4235543;28;20509;-69
2022/08/22 03:54:14;;;;;;;10.55;7.75;;;;;;;9.75;93.95;98589.25;4236331;28;20206;-69
2022/08/22 03:56:20;;;;;;;10.07;6.70;;;;;;;9.72;94.34;98586.44;4234272;28;20050;-69
2022/08/22 03:58:41;;;;;;;10.23;6.75;;;;;;;9.72;94.51;98586.44;4234395;28;20027;-70
2022/08/22 04:01:01;;;;;;;8.23;6.47;;;;;;;9.71;93.63;98580.13;4234992;28;20228;-69
2022/08/22 04:03:21;;;;;;;8.27;6.10;;;;;;;9.72;92.67;98584.47;4233838;28;20419;-69
2022/08/22 04:05:53;;;;;;;8.43;5.90;;;;;;;9.77;91.81;98591.66;4233419;28;20534;-69
2022/08/22 04:08:22;;;;;;;9.13;6.13;;;;;;;9.81;90.61;98590.53;4226452;28;20050;-69
2022/08/22 04:10:57;;;;;;;11.10;7.03;;;;;;;9.75;91.14;98586.50;4235025;28;20059;-69
2022/08/22 04:13:22;;;;;;;10.77;6.57;;;;;;;9.72;91.48;98592.78;4234294;28;20467;-69
2022/08/22 04:16:00;;;;;;;8.70;6.82;;;;;;;9.66;91.72;98588.72;4235054;28;20352;-69
2022/08/22 04:18:31;;;;;;;9.48;7.22;;;;;;;9.52;92.95;98597.56;4232180;28;20770;-70
2022/08/22 04:20:41;;;;;;;8.52;6.53;;;;;;;9.44;93.73;98595.06;4231817;28;20131;-69
2022/08/22 04:23:00;;;;;;;8.82;5.97;;;;;;;9.41;94.42;98598.53;4233337;28;20051;-69
2022/08/22 04:25:06;;;;;;;11.32;7.50;;;;;;;9.39;94.14;98595.34;4234560;28;20059;-69
2022/08/22 04:27:34;;;;;;;15.30;7.07;;;;;;;9.44;92.85;98600.56;4217190;28;20055;-69
2022/08/22 04:29:47;;;;;;;11.05;6.38;;;;;;;9.47;91.02;98605.34;4235374;28;20097;-69
2022/08/22 04:32:06;;;;;;;;;;;;;;;9.49;91.36;98605.78;4235537;28;20043;-69
2022/08/22 04:34:17;;;;;;;8.50;6.15;;;;;;;9.46;91.00;98606.53;4234309;28;20461;-69
2022/08/22 04:36:31;;;;;;;7.22;5.88;;;;;;;9.43;91.04;98608.06;4236261;27;20076;-70
2022/08/22 04:38:47;;;;;;;7.03;6.32;;;;;;;9.36;91.87;98602.41;4234653;28;20777;-69
2022/08/22 04:41:23;;;;;;;9.85;6.85;;;;;;;9.34;91.97;98615.75;4234701;27;20049;-69
2022/08/22 04:43:38;;;;;;;9.70;6.80;;;;;;;9.34;91.78;98603.91;4234029;27;20051;-69
2022/08/22 04:46:04;;;;;;;9.02;6.18;;;;;;;9.39;91.43;98609.94;4236134;27;20059;-69
2022/08/22 04:48:11;;;;;;;7.85;6.18;;;;;;;9.40;91.39;98610.75;4237467;27;20047;-69
2022/08/22 04:50:27;;;;;;;9.77;6.30;;;;;;;9.41;92.11;98623.38;4237580;27;20019;-69
2022/08/22 04:52:50;;;;;;;9.18;7.00;;;;;;;9.43;91.26;98616.34;4215566;28;20526;-69
2022/08/22 04:55:09;;;;;;;;;;;;;;;9.43;91.03;98621.03;4236271;27;20081;-70
2022/08/22 04:57:42;;;;;;;11.02;6.72;;;;;;;9.39;91.39;98623.75;4158502;27;20018;-69
2022/08/22 04:59:43;;;;;;;11.38;7.25;;;;;;;9.40;92.01;98624.56;4236808;27;20054;-69
2022/08/22 05:01:52;;;;;;;10.48;7.63;;;;;;;9.42;92.14;98623.00;4237011;27;20051;-69
2022/08/22 05:03:59;;;;;;;11.80;6.88;;;;;;;9.43;92.76;98626.56;4237395;27;20503;-69
2022/08/22 05:06:02;;;;;;;8.80;6.95;;;;;;;9.43;92.65;98634.84;4238289;27;20130;-69
2022/08/22 05:08:07;;;;;;;9.80;7.22;;;;;;;9.48;92.65;98629.84;4237286;27;20050;-70
2022/08/22 05:10:17;;;;;;;12.40;6.75;;;;;;;9.57;92.53;98640.66;4237874;27;20027;-69
2022/08/22 05:12:27;;;;;;;9.00;6.50;;;;;;;9.65;92.73;98641.56;4237727;27;20372;-69
2022/08/22 05:14:34;;;;;;;11.18;7.03;;;;;;;9.73;92.48;98638.56;4238223;27;20543;-69
2022/08/22 05:16:42;;;;;;;12.27;7.20;;;;;;;9.81;92.13;98636.72;4238265;27;20047;-69
2022/08/22 05:18:47;;;;;;;11.65;6.85;;;;;;;9.89;91.66;98632.91;4237672;27;20058;-69
2022/08/22 05:20:50;;;;;;;12.98;7.60;;;;;;;9.96;91.66;98641.31;4237776;27;20078;-69
2022/08/22 05:22:56;;;;;;;11.38;7.47;;;;;;;10.05;92.12;98646.59;4238179;27;20039;-69
2022/08/22 05:25:04;;;;;;;14.02;7.60;;;;;;;10.11;91.39;98642.38;4237942;27;20070;-69
2022/08/22 05:27:32;;;;;;;13.10;7.85;;;;;;;10.17;92.18;98646.38;4237915;27;20150;-69
2022/08/22 05:29:33;;;;;;;10.57;7.82;;;;;;;10.21;92.49;98652.00;4234141;27;20055;-69
2022/08/22 05:31:47;;;;;;;7.80;7.00;;;;;;;10.24;92.92;98646.53;4238410;27;20043;-69
2022/08/22 05:33:51;;;;;;;12.10;8.45;;;;;;;10.32;92.82;98644.69;4236653;27;20051;-69
2022/08/22 05:36:05;;;;;;;7.78;6.82;;;;;;;10.40;92.83;98658.22;4237352;27;20047;-69
2022/08/22 05:38:09;;;;;;;10.95;7.43;;;;;;;10.50;92.23;98651.25;4237418;27;20043;-70
2022/08/22 05:40:23;;;;;;;10.52;7.00;;;;;;;10.61;91.67;98655.00;4218785;28;20019;-70
2022/08/22 05:42:28;;;;;;;11.00;7.65;;;;;;;10.74;90.65;98649.22;4237909;27;20166;-69
2022/08/22 05:44:37;;;;;;;11.20;8.32;;;;;;;10.85;89.61;98655.72;4237852;27;20051;-69
2022/08/22 05:46:50;;;;;;;9.57;7.43;;;;;;;10.93;89.80;98654.63;4238051;27;20095;-69
2022/08/22 05:49:01;;;;;;;11.52;7.68;;;;;;;11.00;91.50;98660.22;4237975;27;20043;-69
2022/08/22 05:51:17;;;;;;;11.30;7.57;;;;;;;11.10;90.29;98664.34;4237896;27;20166;-69
2022/08/22 05:53:37;;;;;;;14.13;8.07;;;;;;;11.24;90.77;98656.19;4237647;27;20051;-69
2022/08/22 05:55:43;;;;;;;10.02;7.80;;;;;;;11.33;90.54;98664.97;4236808;27;20064;-69
2022/08/22 05:57:49;;;;;;;11.45;8.00;;;;;;;11.41;89.20;98665.88;4237694;27;20054;-69
2022/08/22 06:00:13;;;;;;;9.77;7.18;;;;;;;11.49;87.79;98659.22;4237367;27;20043;-69
2022/08/22 06:02:47;;;;;;;13.88;7.47;;;;;;;11.60;88.35;98668.47;4236838;27;20043;-70
2022/08/22 06:04:59;;;;;;;14.85;7.53;;;;;;;11.71;86.43;98666.59;4236716;27;20054;-69
2022/08/22 06:07:06;;;;;;;11.10;7.60;;;;;;;11.80;87.54;98660.75;4237445;27;20039;-69
2022/08/22 06:09:28;;;;;;;11.50;8.07;;;;;;;11.91;87.67;98664.41;4237092;27;20031;-70
2022/08/22 06:11:44;;;;;;;12.77;7.45;;;;;;;12.00;86.83;98656.59;4236538;27;20062;-69
2022/08/22 06:14:01;;;;;;;9.13;7.45;;;;;;;12.10;85.53;98663.41;4237531;27;20036;-69
2022/08/22 06:16:09;;;;;;;8.27;7.43;;;;;;;12.17;85.60;98668.22;4236722;27;20039;-70
2022/08/22 06:18:13;;;;;;;10.20;7.22;;;;;;;12.25;85.29;98673.44;4237814;27;20027;-70
2022/08/22 06:20:22;;;;;;;11.38;7.50;;;;;;;12.33;85.55;98665.97;4236939;27;20050;-69
2022/08/22 06:22:30;;;;;;;9.50;7.75;;;;;;;12.44;84.53;98672.41;4237155;27;20031;-70
2022/08/22 06:24:33;;;;;;;10.40;7.35;;;;;;;12.51;84.05;98663.31;4236643;27;20039;-70
2022/08/22 06:26:41;;;;;;;10.98;7.47;;;;;;;12.61;84.42;98662.59;4218856;28;20050;-70
2022/08/22 06:28:46;;;;;;;9.02;6.45;;;;;;;12.72;84.32;98665.44;4236777;27;20336;-70
2022/08/22 06:30:51;;;;;;;8.32;6.78;;;;;;;12.81;84.64;98668.66;4237071;27;20290;-69
2022/08/22 06:32:56;;;;;;;10.90;6.60;;;;;;;12.88;83.87;98663.13;4237474;27;20046;-70
2022/08/22 06:35:04;;;;;;;11.23;6.88;;;;;;;12.94;83.39;98659.59;4237144;27;20414;-69
2022/08/22 06:37:10;;;;;;;11.98;7.05;;;;;;;13.04;83.84;98668.38;4236690;27;20796;-70
2022/08/22 06:39:19;;;;;;;17.50;7.80;;;;;;;13.13;84.38;98672.38;4237117;27;20516;-70
2022/08/22 06:41:23;;;;;;;10.00;7.72;;;;;;;13.21;84.84;98664.91;4237236;27;20058;-70
2022/08/22 06:43:24;;;;;;;11.60;7.53;;;;;;;13.29;85.15;98671.28;4237521;27;20205;-70
2022/08/22 06:45:29;;;;;;;10.40;8.05;;;;;;;13.41;85.25;98670.94;4236781;27;20096;-70
2022/08/22 06:47:44;;;;;;;8.55;7.53;;;;;;;13.48;84.87;98668.97;4236788;27;20423;-70
2022/08/22 06:49:44;;;;;;;8.00;6.97;;;;;;;13.55;83.45;98670.16;4236920;27;20047;-70
2022/08/22 06:51:47;;;;;;;8.23;7.43;;;;;;;13.61;83.33;98668.59;4236727;27;20478;-70
2022/08/22 06:53:53;;;;;;;8.63;6.93;;;;;;;13.65;83.13;98656.31;4236916;27;20062;-70
2022/08/22 06:55:58;;;;;;;9.70;6.95;;;;;;;13.75;82.78;98666.66;4236942;27;20126;-70
2022/08/22 06:58:03;;;;;;;10.95;7.95;;;;;;;13.85;82.30;98665.09;4236992;27;20046;-70
2022/08/22 07:00:09;;;;;;;7.90;6.88;;;;;;;13.96;81.68;98667.88;4235514;27;20035;-70
2022/08/22 07:02:21;;;;;;;8.80;6.88;;;;;;;14.02;81.73;98661.50;4237085;27;20029;-70
2022/08/22 07:04:25;;;;;;;8.32;6.75;;;;;;;14.11;81.28;98658.34;4217192;28;20204;-70
2022/08/22 07:06:30;;;;;;;8.07;6.88;;;;;;;14.20;80.17;98658.72;4236730;27;20069;-70
2022/08/22 07:08:33;;;;;;;9.02;7.78;;;;;;;14.28;80.09;98649.19;4235818;27;20035;-70
2022/08/22 07:10:34;;;;;;;12.98;6.95;;;;;;;14.36;80.25;98655.56;4237273;27;20047;-70
2022/08/22 07:12:36;;;;;;;8.20;6.97;;;;;;;14.46;80.36;98654.78;4236451;27;20047;-70
2022/08/22 07:14:43;;;;;;;10.55;7.38;;;;;;;14.58;79.93;98653.56;4236385;27;20387;-70
2022/08/22 07:16:55;;;;;;;9.77;8.27;;;;;;;14.66;79.46;98649.59;4235983;27;20078;-70
2022/08/22 07:18:56;;;;;;;9.38;7.05;;;;;;;14.78;78.93;98656.69;4236656;27;20635;-70
2022/08/22 07:21:03;;;;;;;12.60;6.30;;;;;;;14.91;77.77;98660.66;4236553;27;20054;-70
2022/08/22 07:23:11;;;;;;;8.45;6.40;;;;;;;15.06;76.92;98653.03;4236656;27;20112;-70
2022/08/22 07:25:14;;;;;;;7.60;5.75;;;;;;;15.20;75.31;98652.97;4236366;27;20502;-70
2022/08/22 07:27:58;;;;;;;6.95;6.13;;;;;;;15.33;76.29;98647.75;4236259;27;20054;-70
2022/08/22 07:30:14;;;;;;;9.73;6.28;;;;;;;15.48;75.71;98652.06;4235249;27;20382;-70
2022/08/22 07:32:27;;;;;;;7.45;5.93;;;;;;;15.59;74.22;98652.78;4235959;27;20047;-70
2022/08/22 07:34:40;;;;;;;6.57;5.43;;;;;;;15.78;74.53;98657.06;4236714;27;20035;-70
2022/08/22 07:36:55;;;;;;;12.38;6.30;;;;;;;15.94;74.01;98659.38;4237195;27;20039;-70
2022/08/22 07:39:19;;;;;;;9.02;6.57;;;;;;;16.09;73.51;98660.06;4235928;28;20047;-70
2022/08/22 07:41:25;;;;;;;8.05;6.30;;;;;;;16.16;73.25;98658.00;4236185;28;20039;-70
2022/08/22 07:43:36;;;;;;;5.85;5.22;;;;;;;16.35;69.94;98653.06;4235364;28;20084;-70
2022/08/22 07:45:46;;;;;;;9.27;5.32;;;;;;;16.51;69.05;98651.31;4236507;28;20072;-70
2022/08/22 07:47:49;;;;;;;5.90;4.50;;;;;;;16.74;67.87;98650.72;4236279;28;20051;-70
2022/08/22 07:49:55;;;;;;;7.15;5.80;;;;;;;16.87;68.49;98644.59;4235730;28;20376;-70
2022/08/22 07:52:09;;;;;;;8.68;5.25;;;;;;;16.98;68.53;98648.06;4236043;28;20169;-70
2022/08/22 07:54:20;;;;;;;8.48;4.70;;;;;;;17.11;66.29;98649.88;4234294;28;20130;-70
2022/08/22 07:56:24;;;;;;;9.88;4.03;;;;;;;17.25;65.17;98650.94;4236610;28;20030;-70
2022/08/22 07:58:28;;;;;;;10.25;4.10;;;;;;;17.36;65.56;98646.78;4235623;28;20051;-70
2022/08/22 08:00:30;;;;;;;7.82;4.10;;;;;;;17.47;64.95;98646.66;4236350;28;20398;-70
2022/08/22 08:02:31;;;;;;;7.90;4.20;;;;;;;17.53;65.57;98647.75;4236684;28;20087;-70
2022/08/22 08:04:35;;;;;;;6.25;3.92;;;;;;;17.54;65.24;98646.56;4217591;28;20044;-70
2022/08/22 08:06:36;;;;;;;7.72;4.55;;;;;;;17.63;65.06;98648.84;4236423;28;20654;-70
2022/08/22 08:08:43;;;;;;;7.15;3.92;;;;;;;17.76;65.02;98654.66;4235577;28;20039;-70
2022/08/22 08:10:45;;;;;;;5.80;4.40;;;;;;;17.85;64.54;98646.53;4235488;28;20047;-70
2022/08/22 08:12:50;;;;;;;10.57;3.85;;;;;;;17.93;63.72;98648.81;4236045;28;20487;-70
2022/08/22 08:14:54;;;;;;;4.60;4.05;;;;;;;18.05;62.75;98643.84;4236206;28;20043;-70
2022/08/22 08:17:09;;;;;;;9.10;3.95;;;;;;;18.13;63.34;98650.91;4237479;27;20035;-70
2022/08/22 08:19:11;;;;;;;6.90;4.38;;;;;;;18.18;63.59;98658.81;4238457;27;20039;-70
2022/08/22 08:21:32;;;;;;;5.60;4.00;;;;;;;18.39;62.76;98652.88;4239320;27;20455;-70
2022/08/22 08:23:43;;;;;;;7.63;4.10;;;;;;;18.56;62.57;98658.59;4239163;27;20463;-70
2022/08/22 08:26:08;;;;;;;7.68;4.25;;;;;;;18.66;61.35;98655.63;4238290;27;20217;-70
2022/08/22 08:30:47;;;;;;;5.47;3.80;;;;;;;18.82;61.81;98652.13;4239463;27;20455;-70
2022/08/22 08:32:55;;;;;;;6.78;3.97;;;;;;;19.03;59.60;98659.31;4239206;27;20482;-70
2022/08/22 08:34:55;;;;;;;4.85;4.00;;;;;;;19.06;59.70;98659.25;4238463;27;20050;-70
2022/08/22 08:37:04;;;;;;;8.15;4.30;;;;;;;19.13;60.32;98651.94;4239165;27;20050;-70
2022/08/22 08:39:27;;;;;;;7.53;4.20;;;;;;;19.23;59.16;98654.53;4238364;27;20050;-70
2022/08/22 08:41:42;;;;;;;6.95;3.83;;;;;;;19.31;58.99;98657.97;4227406;27;20285;-70
2022/08/22 08:44:00;;;;;;;8.63;3.80;;;;;;;19.48;59.06;98662.41;4239000;27;20038;-70
2022/08/22 08:46:13;;;;;;;5.80;3.20;;;;;;;19.69;56.87;98657.56;4238407;27;20074;-70
2022/08/22 08:48:21;;;;;;;4.82;3.78;;;;;;;19.90;56.52;98655.09;4238417;27;20494;-70
2022/08/22 08:50:25;;;;;;;5.20;3.70;;;;;;;20.03;55.88;98654.41;4238456;27;20406;-70
2022/08/22 08:52:53;;;;;;;6.63;3.17;;;;;;;20.25;55.40;98651.84;4239023;27;20043;-70
2022/08/22 08:55:04;;;;;;;7.30;3.80;;;;;;;20.30;55.23;98660.56;4238579;27;20169;-70
2022/08/22 08:57:22;;;;;;;7.85;3.75;;;;;;;20.32;54.20;98655.28;4238661;27;20194;-70
2022/08/22 08:59:47;;;;;;;4.60;3.67;;;;;;;20.45;53.96;98655.41;4220039;28;20130;-70
2022/08/22 09:02:09;;;;;;;5.90;3.33;;;;;;;20.43;53.40;98641.78;4238765;27;20043;-70
2022/08/22 09:04:34;;;;;;;5.00;4.27;;;;;;;20.44;55.13;98648.22;4237708;27;20043;-70
2022/08/22 09:06:51;;;;;;;6.60;2.90;;;;;;;20.44;53.72;98649.00;4237619;27;20281;-70
2022/08/22 09:09:06;;;;;;;8.93;3.47;;;;;;;20.55;53.34;98645.13;4238425;27;20486;-70
2022/08/22 09:11:43;;;;;;;8.13;3.45;;;;;;;20.74;53.24;98647.78;4238302;27;20047;-70
2022/08/22 09:13:52;;;;;;;3.85;2.97;;;;;;;20.89;52.86;98648.19;4238346;27;20042;-70
2022/08/22 09:16:23;;;;;;;5.60;2.83;;;;;;;20.98;53.72;98636.31;4238574;27;20129;-70
2022/08/22 09:18:39;;;;;;;6.20;2.83;;;;;;;21.09;52.14;98642.41;4236865;27;20359;-70
2022/08/22 09:20:54;;;;;;;6.95;2.88;;;;;;;21.07;51.76;98642.09;4237558;27;20104;-70
2022/08/22 09:23:07;;;;;;;5.38;2.47;;;;;;;21.23;49.43;98644.84;4238054;27;20360;-70
2022/08/22 09:25:25;;;;;;;7.43;2.97;;;;;;;21.37;49.64;98646.47;4238212;27;20058;-70
2022/08/22 09:27:40;;;;;;;2.97;2.30;;;;;;;21.46;48.48;98638.16;4238043;27;20100;-70
2022/08/22 09:29:53;;;;;;;8.63;2.92;;;;;;;21.54;48.62;98647.97;4238467;27;20043;-70
2022/08/22 09:32:10;;;;;;;12.40;3.15;;;;;;;21.52;49.51;98642.00;4238459;27;20054;-70
2022/08/22 09:34:34;;;;;;;6.60;2.95;;;;;;;21.74;49.02;98642.13;4237664;27;20424;-71
2022/08/22 09:37:08;;;;;;;7.30;2.70;;;;;;;21.99;47.16;98646.19;4238877;27;20390;-71
2022/08/22 09:39:34;;;;;;;5.40;3.15;;;;;;;22.17;45.83;98646.44;4236324;27;20050;-71
2022/08/22 09:41:51;;;;;;;4.40;2.40;;;;;;;22.17;46.16;98642.84;4238221;27;20047;-70
2022/08/22 09:44:34;;;;;;;2.92;2.60;;;;;;;22.26;47.17;98640.94;4237879;27;20475;-70
2022/08/22 09:46:53;;;;;;;7.55;2.55;;;;;;;22.24;45.83;98642.59;4226709;27;20043;-70
2022/08/22 09:49:18;;;;;;;5.75;2.50;;;;;;;22.30;45.38;98647.22;4236946;27;20071;-71
2022/08/22 09:51:40;;;;;;;5.38;2.70;;;;;;;22.34;45.60;98641.44;4237297;27;20365;-71
2022/08/22 09:54:13;;;;;;;6.50;3.28;;;;;;;22.31;45.26;98642.38;4237401;27;20137;-71
2022/08/22 09:56:46;;;;;;;;;;;;;;;22.32;44.80;98641.91;4238014;27;20043;-71
2022/08/22 09:59:15;;;;;;;4.50;2.40;;;;;;;22.33;45.72;98637.84;4190816;27;19930;-71
2022/08/22 10:01:26;;;;;;;8.02;3.17;;;;;;;22.30;45.56;98641.59;4237750;27;20086;-71
2022/08/22 10:03:45;;;;;;;5.57;2.88;;;;;;;22.49;45.35;98636.91;4238024;27;20346;-71
2022/08/22 10:05:53;;;;;;;4.18;2.65;;;;;;;22.75;45.67;98634.81;4237683;27;20039;-71
2022/08/22 10:08:18;;;;;;;5.22;2.70;;;;;;;22.73;46.32;98634.47;4237808;27;20039;-71
2022/08/22 10:10:28;;;;;;;7.40;2.70;;;;;;;22.84;44.94;98632.09;4237510;27;20047;-71
2022/08/22 10:12:49;;;;;;;5.40;2.70;;;;;;;22.99;43.76;98638.78;4237733;27;20039;-70
2022/08/22 10:15:04;;;;;;;7.55;3.00;;;;;;;23.11;44.04;98636.41;4238048;27;20388;-70
2022/08/22 10:17:18;;;;;;;4.78;2.78;;;;;;;23.24;43.91;98626.59;4237506;27;20039;-70
2022/08/22 10:19:31;;;;;;;4.22;2.60;;;;;;;23.39;43.77;98626.06;4235705;27;20459;-71
2022/08/22 10:21:41;;;;;;;5.38;3.10;;;;;;;23.51;43.99;98628.81;4237697;27;20536;-71
2022/08/22 10:23:53;;;;;;;5.80;3.25;;;;;;;23.57;42.54;98617.69;4237225;27;20043;-71
2022/08/22 10:26:06;;;;;;;6.60;2.90;;;;;;;23.58;43.07;98619.25;4218985;28;20044;-71
2022/08/22 10:28:19;;;;;;;5.88;2.75;;;;;;;23.75;43.42;98626.31;4237534;27;20039;-71
2022/08/22 10:30:36;;;;;;;5.43;2.88;;;;;;;23.90;42.41;98631.38;4237386;27;20039;-71
2022/08/22 10:33:12;;;;;;;6.00;2.80;;;;;;;23.82;41.47;98626.00;4237162;27;20051;-71
2022/08/22 10:35:23;;;;;;;5.45;3.03;;;;;;;23.93;41.53;98617.13;4236755;27;20101;-71
2022/08/22 10:37:29;;;;;;;5.13;2.88;;;;;;;24.07;40.46;98613.69;4237931;27;20436;-71
2022/08/22 10:39:42;;;;;;;4.18;2.13;;;;;;;24.00;37.56;98627.34;4236448;27;20055;-71